createdAt,value
2018-12-25T00:01:59.216Z,3.50
2018-12-25T00:04:27.358Z,3.50
2018-12-25T00:06:55.571Z,3.50
2018-12-25T00:09:23.838Z,3.40
2018-12-25T00:11:51.980Z,3.40
2018-12-25T00:14:20.083Z,3.40
2018-12-25T00:16:48.231Z,3.40
2018-12-25T00:19:16.344Z,3.30
2018-12-25T00:21:44.500Z,3.30
2018-12-25T00:24:12.565Z,3.20
2018-12-25T00:26:40.719Z,3.30
2018-12-25T00:29:09.868Z,3.30
2018-12-25T00:31:38.017Z,3.20
2018-12-25T00:34:06.207Z,3.10
2018-12-25T00:36:35.641Z,3.10
2018-12-25T00:39:05.241Z,3.10
2018-12-25T00:41:33.496Z,3.00
2018-12-25T00:44:01.650Z,2.90
2018-12-25T00:46:29.785Z,2.80
2018-12-25T00:48:57.952Z,2.80
2018-12-25T00:51:26.050Z,2.70
2018-12-25T00:53:54.437Z,2.60
2018-12-25T00:56:22.582Z,2.50
2018-12-25T00:58:50.851Z,2.50
2018-12-25T01:01:19.166Z,2.50
2018-12-25T01:03:47.289Z,2.50
2018-12-25T01:06:15.780Z,2.50
2018-12-25T01:08:43.902Z,2.50
2018-12-25T01:11:14.483Z,2.40
2018-12-25T01:13:42.895Z,2.40
2018-12-25T01:16:11.017Z,2.30
2018-12-25T01:18:39.175Z,2.30
2018-12-25T01:21:07.327Z,2.30
2018-12-25T01:23:35.431Z,2.30
2018-12-25T01:26:03.533Z,2.20
2018-12-25T01:28:31.873Z,2.20
2018-12-25T01:31:00.014Z,2.10
2018-12-25T01:33:28.145Z,2.10
2018-12-25T01:35:56.253Z,2.00
2018-12-25T01:38:24.325Z,2.00
2018-12-25T01:40:52.491Z,2.00
2018-12-25T01:43:20.675Z,2.00
2018-12-25T01:45:49.073Z,1.90
2018-12-25T01:48:17.255Z,1.90
2018-12-25T01:50:45.351Z,1.90
2018-12-25T01:53:13.425Z,1.80
2018-12-25T01:55:41.677Z,1.80
2018-12-25T01:58:09.937Z,1.90
2018-12-25T02:00:38.014Z,1.80
2018-12-25T02:03:06.222Z,1.80
2018-12-25T02:05:34.324Z,1.70
2018-12-25T02:08:02.461Z,1.70
2018-12-25T02:10:30.889Z,1.60
2018-12-25T02:12:58.997Z,1.60
2018-12-25T02:15:27.782Z,1.60
2018-12-25T02:17:56.230Z,1.60
2018-12-25T02:20:24.641Z,1.60
2018-12-25T02:22:52.827Z,1.60
2018-12-25T02:25:21.037Z,1.50
2018-12-25T02:27:49.637Z,1.50
2018-12-25T02:30:17.792Z,1.50
2018-12-25T02:32:45.982Z,1.50
2018-12-25T02:35:14.163Z,1.60
2018-12-25T02:37:44.475Z,1.50
2018-12-25T02:40:13.361Z,1.50
2018-12-25T02:42:41.583Z,1.60
2018-12-25T02:45:09.869Z,1.60
2018-12-25T02:47:41.111Z,1.60
2018-12-25T02:50:09.387Z,1.60
2018-12-25T02:52:37.979Z,1.70
2018-12-25T02:55:06.164Z,1.70
2018-12-25T02:57:34.491Z,1.70
2018-12-25T03:00:02.727Z,1.70
2018-12-25T03:02:30.851Z,1.70
2018-12-25T03:05:00.384Z,1.60
2018-12-25T03:07:28.550Z,1.60
2018-12-25T03:09:56.766Z,1.60
2018-12-25T03:12:24.937Z,1.60
2018-12-25T03:14:53.098Z,1.60
2018-12-25T03:17:21.338Z,1.60
2018-12-25T03:19:49.522Z,1.70
2018-12-25T03:22:19.022Z,1.60
2018-12-25T03:24:47.111Z,1.60
2018-12-25T03:27:15.332Z,1.60
2018-12-25T03:29:43.507Z,1.50
2018-12-25T03:32:11.678Z,1.50
2018-12-25T03:34:39.857Z,1.40
2018-12-25T03:37:08.987Z,1.40
2018-12-25T03:39:37.360Z,1.40
2018-12-25T03:42:05.569Z,1.40
2018-12-25T03:44:34.555Z,1.40
2018-12-25T03:47:02.749Z,1.40
2018-12-25T03:49:31.027Z,1.50
2018-12-25T03:52:00.635Z,1.50
2018-12-25T03:54:28.799Z,1.50
2018-12-25T03:56:57.961Z,1.60
2018-12-25T03:59:26.244Z,1.60
2018-12-25T04:01:54.500Z,1.50
2018-12-25T04:04:23.995Z,1.60
2018-12-25T04:06:52.204Z,1.60
2018-12-25T04:09:20.830Z,1.60
2018-12-25T04:11:49.067Z,1.70
2018-12-25T04:14:17.865Z,1.80
2018-12-25T04:16:46.011Z,1.80
2018-12-25T04:19:14.170Z,1.90
2018-12-25T04:21:42.342Z,1.90
2018-12-25T04:24:10.468Z,1.90
2018-12-25T04:26:38.631Z,2.00
2018-12-25T04:29:06.846Z,2.00
2018-12-25T04:31:35.270Z,2.00
2018-12-25T04:34:03.401Z,2.10
2018-12-25T04:36:34.344Z,2.10
2018-12-25T04:39:04.863Z,2.10
2018-12-25T04:41:33.027Z,2.10
2018-12-25T04:44:01.216Z,2.20
2018-12-25T04:46:29.405Z,2.20
2018-12-25T04:48:57.535Z,2.20
2018-12-25T04:51:26.381Z,2.20
2018-12-25T04:53:54.553Z,2.20
2018-12-25T04:56:22.663Z,2.20
2018-12-25T04:58:50.750Z,2.10
2018-12-25T05:01:18.925Z,2.10
2018-12-25T05:03:47.088Z,2.10
2018-12-25T05:06:15.467Z,2.10
2018-12-25T05:08:43.537Z,2.10
2018-12-25T05:11:13.069Z,2.10
2018-12-25T05:13:41.213Z,2.10
2018-12-25T05:16:10.238Z,2.10
2018-12-25T05:18:38.306Z,2.00
2018-12-25T05:21:06.815Z,2.00
2018-12-25T05:23:35.254Z,2.00
2018-12-25T05:26:04.844Z,1.90
2018-12-25T05:28:33.061Z,1.80
2018-12-25T05:31:02.033Z,1.80
2018-12-25T05:33:30.398Z,1.70
2018-12-25T05:35:58.577Z,1.60
2018-12-25T05:38:26.753Z,1.60
2018-12-25T05:40:55.271Z,1.60
2018-12-25T05:43:23.522Z,1.50
2018-12-25T05:45:51.868Z,1.50
2018-12-25T05:48:20.032Z,1.50
2018-12-25T05:50:48.193Z,1.40
2018-12-25T05:53:16.363Z,1.40
2018-12-25T05:55:44.970Z,1.40
2018-12-25T05:58:13.254Z,1.30
2018-12-25T06:00:41.411Z,1.30
2018-12-25T06:03:09.550Z,1.20
2018-12-25T06:05:37.698Z,1.20
2018-12-25T06:08:05.960Z,1.20
2018-12-25T06:10:34.248Z,1.10
2018-12-25T06:13:02.492Z,1.10
2018-12-25T06:15:31.039Z,1.00
2018-12-25T06:17:59.218Z,0.90
2018-12-25T06:20:27.493Z,0.90
2018-12-25T06:22:55.719Z,0.90
2018-12-25T06:25:23.987Z,0.80
2018-12-25T06:27:54.396Z,0.80
2018-12-25T06:30:22.941Z,0.80
2018-12-25T06:32:51.103Z,0.80
2018-12-25T06:35:19.291Z,0.70
2018-12-25T06:37:47.527Z,0.70
2018-12-25T06:40:15.805Z,0.70
2018-12-25T06:42:44.485Z,0.60
2018-12-25T06:45:12.733Z,0.60
2018-12-25T06:47:40.919Z,0.50
2018-12-25T06:50:09.097Z,0.50
2018-12-25T06:52:37.268Z,0.40
2018-12-25T06:55:05.531Z,0.40
2018-12-25T06:57:33.768Z,0.40
2018-12-25T07:00:02.214Z,0.40
2018-12-25T07:02:30.681Z,0.30
2018-12-25T07:05:01.550Z,0.30
2018-12-25T07:07:29.705Z,0.30
2018-12-25T07:10:01.000Z,0.30
2018-12-25T07:12:29.185Z,0.30
2018-12-25T07:15:08.240Z,0.30
2018-12-25T07:17:39.093Z,0.30
2018-12-25T07:20:28.842Z,0.30
2018-12-25T07:24:58.420Z,0.30
2018-12-25T07:27:37.832Z,0.30
2018-12-25T07:39:02.169Z,0.40
2018-12-25T07:45:06.715Z,0.30
2018-12-25T07:47:40.278Z,0.40
2018-12-25T07:50:08.545Z,0.30
2018-12-25T07:52:39.954Z,0.40
2018-12-25T07:55:13.667Z,0.30
2018-12-25T07:58:01.123Z,0.30
2018-12-25T08:00:51.681Z,0.30
2018-12-25T08:03:45.139Z,0.30
2018-12-25T08:06:28.646Z,0.10
2018-12-25T08:08:59.377Z,0.30
2018-12-25T08:11:27.549Z,0.40
2018-12-25T08:13:55.861Z,0.40
2018-12-25T08:16:24.076Z,0.40
2018-12-25T08:18:52.654Z,0.50
2018-12-25T08:21:29.065Z,0.50
2018-12-25T08:23:51.021Z,0.50
2018-12-25T08:26:19.477Z,0.60
2018-12-25T08:28:47.717Z,0.50
2018-12-25T08:31:16.056Z,0.40
2018-12-25T08:33:44.252Z,0.50
2018-12-25T08:36:12.419Z,0.50
2018-12-25T08:38:40.567Z,0.50
2018-12-25T08:41:08.895Z,0.50
2018-12-25T08:43:38.611Z,0.60
2018-12-25T08:46:06.811Z,0.70
2018-12-25T08:48:35.186Z,0.70
2018-12-25T08:51:03.555Z,0.80
2018-12-25T08:53:31.803Z,0.90
2018-12-25T08:55:59.974Z,1.00
2018-12-25T08:58:28.215Z,1.10
2018-12-25T09:00:56.618Z,1.20
2018-12-25T09:03:25.069Z,1.40
2018-12-25T09:05:53.349Z,1.40
2018-12-25T09:08:21.575Z,1.60
2018-12-25T09:10:49.890Z,1.70
2018-12-25T09:13:18.095Z,1.80
2018-12-25T09:15:46.530Z,1.80
2018-12-25T09:18:16.471Z,1.90
2018-12-25T09:20:44.727Z,1.90
2018-12-25T09:23:12.989Z,2.10
2018-12-25T09:25:41.150Z,2.10
2018-12-25T09:28:09.402Z,2.20
2018-12-25T09:30:38.688Z,2.20
2018-12-25T09:33:13.034Z,2.30
2018-12-25T09:35:41.219Z,2.30
2018-12-25T09:38:09.469Z,2.40
2018-12-25T09:40:37.644Z,2.50
2018-12-25T09:43:05.853Z,2.50
2018-12-25T09:45:33.958Z,2.60
2018-12-25T09:48:02.062Z,2.70
2018-12-25T09:50:30.153Z,2.70
2018-12-25T09:52:58.358Z,2.80
2018-12-25T09:55:26.840Z,2.90
2018-12-25T09:57:54.960Z,3.00
2018-12-25T10:00:23.060Z,3.00
2018-12-25T10:02:51.226Z,3.10
2018-12-25T10:05:19.327Z,3.20
2018-12-25T10:07:47.424Z,3.20
2018-12-25T10:10:16.023Z,3.20
2018-12-25T10:12:45.762Z,3.30
2018-12-25T10:15:19.871Z,3.30
2018-12-25T10:17:48.385Z,3.30
2018-12-25T10:20:16.484Z,3.30
2018-12-25T10:22:44.566Z,3.30
2018-12-25T10:25:12.682Z,3.40
2018-12-25T10:27:40.783Z,3.40
2018-12-25T10:30:08.929Z,3.40
2018-12-25T10:32:37.015Z,3.50
2018-12-25T10:35:05.886Z,3.60
2018-12-25T10:37:34.013Z,3.60
2018-12-25T10:40:02.179Z,3.70
2018-12-25T10:42:30.363Z,3.70
2018-12-25T10:44:58.463Z,3.80
2018-12-25T10:47:28.702Z,3.80
2018-12-25T10:49:57.019Z,3.90
2018-12-25T10:52:25.718Z,3.90
2018-12-25T10:54:54.031Z,4.00
2018-12-25T10:57:22.742Z,4.10
2018-12-25T10:59:50.904Z,4.20
2018-12-25T11:02:19.091Z,4.30
2018-12-25T11:04:47.269Z,4.30
2018-12-25T11:07:15.511Z,4.40
2018-12-25T11:09:44.004Z,4.50
2018-12-25T11:12:12.121Z,4.60
2018-12-25T11:14:40.363Z,4.70
2018-12-25T11:17:09.136Z,4.80
2018-12-25T11:19:37.255Z,4.80
2018-12-25T11:22:11.025Z,4.80
2018-12-25T11:24:46.081Z,4.90
2018-12-25T11:27:14.292Z,4.90
2018-12-25T11:29:48.555Z,5.00
2018-12-25T11:32:17.416Z,5.10
2018-12-25T11:34:55.631Z,5.20
2018-12-25T11:37:23.789Z,5.30
2018-12-25T11:39:52.099Z,5.40
2018-12-25T11:42:24.470Z,5.40
2018-12-25T11:44:52.646Z,5.50
2018-12-25T11:47:20.755Z,5.50
2018-12-25T11:49:48.941Z,5.50
2018-12-25T11:52:17.325Z,5.50
2018-12-25T11:54:45.704Z,5.50
2018-12-25T11:57:41.791Z,5.50
2018-12-25T12:00:09.926Z,5.60
2018-12-25T12:02:38.114Z,5.70
2018-12-25T12:05:06.825Z,5.70
2018-12-25T12:07:34.989Z,5.70
2018-12-25T12:10:03.161Z,5.70
2018-12-25T12:12:31.302Z,5.70
2018-12-25T12:14:59.463Z,5.80
2018-12-25T12:17:27.635Z,5.90
2018-12-25T12:19:55.784Z,5.90
2018-12-25T12:22:24.211Z,6.00
2018-12-25T12:24:57.671Z,6.00
2018-12-25T12:27:26.935Z,6.10
2018-12-25T12:29:55.249Z,6.10
2018-12-25T12:32:23.561Z,6.20
2018-12-25T12:34:52.583Z,6.30
2018-12-25T12:37:20.832Z,6.40
2018-12-25T12:39:49.610Z,6.40
2018-12-25T12:42:22.231Z,6.40
2018-12-25T12:45:01.945Z,6.50
2018-12-25T12:47:32.084Z,6.50
2018-12-25T12:50:00.331Z,6.60
2018-12-25T12:52:36.361Z,6.60
2018-12-25T12:55:12.557Z,6.60
2018-12-25T12:57:41.358Z,6.60
2018-12-25T13:00:23.871Z,6.60
2018-12-25T13:02:52.264Z,6.60
2018-12-25T13:05:20.696Z,6.70
2018-12-25T13:07:49.494Z,6.60
2018-12-25T13:10:20.937Z,6.60
2018-12-25T13:12:52.919Z,6.60
2018-12-25T13:15:29.199Z,6.70
2018-12-25T13:18:21.931Z,6.70
2018-12-25T13:24:57.970Z,6.60
2018-12-25T13:35:13.421Z,6.60
2018-12-25T13:45:39.159Z,6.50
2018-12-25T13:48:13.710Z,6.50
2018-12-25T13:51:01.943Z,6.50
2018-12-25T14:10:49.531Z,6.30
2018-12-25T15:29:59.048Z,4.40
2018-12-25T15:32:33.704Z,4.20
2018-12-25T15:38:44.065Z,3.90
2018-12-25T15:41:20.437Z,3.80
2018-12-25T15:44:05.301Z,3.70
2018-12-25T15:46:40.499Z,3.60
2018-12-25T15:49:14.035Z,3.50
2018-12-25T15:52:03.908Z,3.40
2018-12-25T15:54:36.396Z,3.40
2018-12-25T15:57:15.814Z,3.20
2018-12-25T15:59:54.258Z,3.20
2018-12-25T16:02:35.917Z,3.10
2018-12-25T16:05:29.624Z,2.90
2018-12-25T16:08:15.114Z,2.90
2018-12-25T16:10:54.816Z,2.80
2018-12-25T16:13:40.464Z,2.70
2018-12-25T16:16:23.278Z,2.70
2018-12-25T16:18:58.758Z,2.60
2018-12-25T16:21:43.079Z,2.60
2018-12-25T16:24:27.385Z,2.50
2018-12-25T16:26:59.695Z,2.40
2018-12-25T16:29:44.067Z,2.40
2018-12-25T16:32:20.429Z,2.30
2018-12-25T16:34:55.252Z,2.20
2018-12-25T16:37:45.432Z,2.20
2018-12-25T16:40:21.522Z,2.10
2018-12-25T16:42:59.886Z,1.90
2018-12-25T16:45:52.459Z,1.90
2018-12-25T16:48:22.368Z,1.80
2018-12-25T16:50:55.747Z,1.80
2018-12-25T16:53:34.298Z,1.80
2018-12-25T16:56:05.248Z,1.80
2018-12-25T16:58:36.532Z,1.90
2018-12-25T17:01:22.244Z,1.80
2018-12-25T17:03:56.672Z,1.70
2018-12-25T17:06:40.434Z,1.60
2018-12-25T17:09:14.077Z,1.60
2018-12-25T17:11:48.670Z,1.50
2018-12-25T17:14:22.021Z,1.50
2018-12-25T17:16:54.584Z,1.40
2018-12-25T17:19:28.412Z,1.30
2018-12-25T17:21:57.627Z,1.30
2018-12-25T17:24:25.802Z,1.30
2018-12-25T17:26:55.149Z,1.30
2018-12-25T17:29:23.273Z,1.30
2018-12-25T17:31:53.800Z,1.30
2018-12-25T17:34:21.916Z,1.20
2018-12-25T17:36:50.057Z,1.20
2018-12-25T17:39:18.187Z,1.20
2018-12-25T17:41:46.314Z,1.20
2018-12-25T17:44:14.450Z,1.20
2018-12-25T17:46:42.584Z,1.20
2018-12-25T17:49:10.722Z,1.20
2018-12-25T17:51:38.849Z,1.20
2018-12-25T17:54:10.779Z,1.10
2018-12-25T17:56:37.964Z,1.00
2018-12-25T17:59:06.253Z,1.00
2018-12-25T18:01:34.325Z,0.90
2018-12-25T18:04:02.467Z,0.80
2018-12-25T18:06:30.548Z,0.80
2018-12-25T18:08:59.138Z,0.80
2018-12-25T18:11:27.304Z,0.80
2018-12-25T18:13:56.725Z,0.80
2018-12-25T18:16:24.845Z,0.80
2018-12-25T18:18:52.989Z,0.80
2018-12-25T18:21:21.148Z,0.70
2018-12-25T18:23:49.341Z,0.70
2018-12-25T18:26:17.828Z,0.70
2018-12-25T18:28:46.199Z,0.70
2018-12-25T18:31:14.702Z,0.80
2018-12-25T18:33:42.879Z,0.70
2018-12-25T18:36:11.098Z,0.70
2018-12-25T18:38:39.191Z,0.60
2018-12-25T18:41:07.322Z,0.60
2018-12-25T18:43:38.989Z,0.50
2018-12-25T18:46:08.877Z,0.50
2018-12-25T18:48:37.858Z,0.50
2018-12-25T18:51:06.068Z,0.40
2018-12-25T18:53:34.197Z,0.40
2018-12-25T18:56:02.383Z,0.40
2018-12-25T18:58:31.162Z,0.30
2018-12-25T19:00:59.333Z,0.30
2018-12-25T19:03:30.711Z,0.30
2018-12-25T19:05:58.933Z,0.30
2018-12-25T19:08:27.067Z,0.20
2018-12-25T19:10:56.460Z,0.10
2018-12-25T19:13:24.616Z,0.10
2018-12-25T19:15:55.362Z,0.10
2018-12-25T19:18:23.676Z,0.00
2018-12-25T19:20:51.947Z,0.00
2018-12-25T19:23:20.219Z,0.00
2018-12-25T19:25:48.420Z,0.00
2018-12-25T19:28:16.665Z,0.00
2018-12-25T19:30:45.112Z,0.00
2018-12-25T19:33:13.260Z,0.00
2018-12-25T19:35:41.412Z,0.00
2018-12-25T19:38:09.609Z,0.10
2018-12-25T19:40:40.570Z,0.10
2018-12-25T19:43:10.137Z,0.00
2018-12-25T19:45:39.159Z,0.00
2018-12-25T19:48:07.310Z,0.00
2018-12-25T19:50:35.467Z,-0.10
2018-12-25T19:53:03.584Z,-0.20
2018-12-25T19:55:38.604Z,-0.20
2018-12-25T19:58:06.837Z,-0.10
2018-12-25T20:00:35.057Z,-0.20
2018-12-25T20:03:13.619Z,-0.10
2018-12-25T20:06:37.216Z,-0.20
2018-12-25T20:09:48.419Z,-0.20
2018-12-25T20:12:53.561Z,-0.30
2018-12-25T20:16:01.800Z,-0.20
2018-12-25T20:19:06.900Z,-0.20
2018-12-25T20:22:13.747Z,-0.20
2018-12-25T20:25:36.084Z,-0.20
2018-12-25T20:28:28.796Z,-0.10
2018-12-25T20:31:50.855Z,-0.20
2018-12-25T20:38:42.664Z,-0.20
2018-12-25T20:42:14.570Z,-0.20
2018-12-25T20:45:14.112Z,-0.20
2018-12-25T20:48:21.047Z,-0.20
2018-12-25T20:51:59.166Z,-0.20
2018-12-25T20:55:15.558Z,-0.20
2018-12-25T20:58:25.377Z,-0.30
2018-12-25T21:01:43.040Z,-0.30
2018-12-25T21:05:16.555Z,-0.30
2018-12-25T21:14:11.669Z,-0.30
2018-12-25T21:17:16.919Z,-0.50
2018-12-25T21:20:22.357Z,-0.50
2018-12-25T21:23:27.398Z,-0.60
2018-12-25T21:26:31.447Z,-0.60
2018-12-25T21:28:59.759Z,-0.60
2018-12-25T21:31:29.743Z,-0.60
2018-12-25T21:33:57.934Z,-0.60
2018-12-25T21:36:26.771Z,-0.60
2018-12-25T21:38:54.905Z,-0.60
2018-12-25T21:41:23.659Z,-0.60
2018-12-25T21:43:53.097Z,-0.70
2018-12-25T21:46:21.186Z,-0.70
2018-12-25T21:48:50.191Z,-0.70
2018-12-25T21:51:20.223Z,-0.70
2018-12-25T21:53:48.609Z,-0.60
2018-12-25T21:56:16.844Z,-0.50
2018-12-25T21:58:45.135Z,-0.60
2018-12-25T22:01:14.562Z,-0.60
2018-12-25T22:03:42.981Z,-0.50
2018-12-25T22:06:11.101Z,-0.50
2018-12-25T22:08:39.191Z,-0.50
2018-12-25T22:11:07.283Z,-0.50
2018-12-25T22:13:35.454Z,-0.50
2018-12-25T22:16:03.612Z,-0.50
2018-12-25T22:18:31.849Z,-0.50
2018-12-25T22:20:59.943Z,-0.50
2018-12-25T22:23:28.111Z,-0.50
2018-12-25T22:25:56.527Z,-0.50
2018-12-25T22:28:26.239Z,-0.60
2018-12-25T22:30:54.765Z,-0.50
2018-12-25T22:33:23.147Z,-0.50
2018-12-25T22:35:51.236Z,-0.50
2018-12-25T22:38:19.366Z,-0.50
2018-12-25T22:40:49.929Z,-0.50
2018-12-25T22:43:18.008Z,-0.50
2018-12-25T22:45:46.974Z,-0.50
2018-12-25T22:48:15.071Z,-0.50
2018-12-25T22:50:43.243Z,-0.60
2018-12-25T22:53:11.351Z,-0.60
2018-12-25T22:55:40.757Z,-0.70
2018-12-25T22:58:08.880Z,-0.70
2018-12-25T23:00:37.454Z,-0.60
2018-12-25T23:03:05.539Z,-0.70
2018-12-25T23:05:34.034Z,-0.70
2018-12-25T23:08:02.572Z,-0.70
2018-12-25T23:10:31.253Z,-0.70
2018-12-25T23:12:59.360Z,-0.70
2018-12-25T23:15:28.721Z,-0.70
2018-12-25T23:17:56.824Z,-0.70
2018-12-25T23:20:28.843Z,-0.60
2018-12-25T23:22:55.957Z,-0.60
2018-12-25T23:25:24.107Z,-0.60
2018-12-25T23:27:52.236Z,-0.60
2018-12-25T23:30:21.146Z,-0.60
2018-12-25T23:32:49.235Z,-0.60
2018-12-25T23:35:17.489Z,-0.70
2018-12-25T23:37:45.989Z,-0.70
2018-12-25T23:40:14.068Z,-0.70
2018-12-25T23:42:42.250Z,-0.80
2018-12-25T23:45:10.414Z,-0.80
2018-12-25T23:47:38.557Z,-0.70
2018-12-25T23:50:07.498Z,-0.70
2018-12-25T23:52:35.983Z,-0.70
2018-12-25T23:55:04.206Z,-0.70
2018-12-25T23:57:32.738Z,-0.70
